• Join FlightAware (Why Join?)
  • Login
  • US Flag 
10:48AM EDT


 

Airport Tracker/Info


-or-


 

Live Flight TrackerFlight Track Log ✈ USC105 ✈ 30-Apr-2013 ✈ KDPA - KYIP

Flight Track Log - Related Links

Times and Time Zones

All times are in EDT time to prevent confusion due to time zone crossing. See the USC105 flight status page for this flight to view local times or setup timezone preferences in your user account.

Time Position Orientation Groundspeed Altitude Reporting Facility
EDT Latitude Longitude Course Direction KTS MPH feet Rate Location/Type
06:06AM 41.8833 -88.2500 153° Southeast 98 113 1,700  Level Chicago TRACON
06:07AM 41.8500 -88.2167 143° Southeast 126 145 2,600 720 Climbing Chicago TRACON
06:08AM 41.8353 -88.1831 120° Southeast 127 146 3,400 840 Climbing Chicago Center
06:09AM 41.8142 -88.1392 123° Southeast 136 157 4,400 960 Climbing Chicago Center
06:10AM 41.8097 -88.0836 96° East 155 178 5,400 900 Climbing Chicago Center
06:11AM 41.9392 -87.8902 153° Southeast  Level Estimated
06:11AM 41.8172 -88.0242 80° East 160 184 6,300  Level Chicago Center
06:12AM 41.8247 -87.9653 80° East 162 186 7,000 300 Climbing Chicago Center
06:13AM 41.8328 -87.8950 81° East 180 207 7,000  Level Chicago Center
06:14AM 41.8403 -87.8222 82° East 194 223 7,000  Level Chicago Center
06:15AM 41.8500 -87.7500 80° East 209 241 7,000  Level Chicago TRACON
06:15AM 41.8500 -87.6833 90° East 218 251 7,000  Level Chicago TRACON
06:17AM 41.8667 -87.5833 77° East 215 247 7,000  Level Chicago TRACON
06:17AM 41.8686 -87.5708 78° East 218 251 7,000  Level Chicago Center
06:18AM 41.8775 -87.4914 81° East 216 249 7,000  Level Chicago Center
06:19AM 41.8833 -87.4333 82° East 216 249 7,000  Level Chicago TRACON
06:20AM 41.8947 -87.3336 81° East 213 245 7,000  Level Chicago Center
06:21AM 41.9031 -87.2544 82° East 215 247 7,000 -60 Level Chicago Center
06:22AM 41.9108 -87.1742 83° East 216 249 6,900 -60 Descending Chicago Center
06:23AM 41.9194 -87.0969 81° East 211 243 6,900  Level Chicago Center
06:24AM 41.9286 -87.0178 81° East 215 247 7,000  Climbing Chicago Center
06:25AM 41.9364 -86.9400 82° East 212 244 7,000  Level Chicago Center
06:26AM 41.9439 -86.8611 83° East 213 245 7,000  Level Chicago Center
06:27AM 41.9525 -86.7814 82° East 216 249 7,000  Level Chicago Center
06:28AM 41.9603 -86.7019 82° East 216 249 7,000  Level Chicago Center
06:29AM 41.9692 -86.6147 82° East 215 247 7,000 -360 Level Chicago Center
06:30AM 41.9767 -86.5306 83° East 226 260 6,300 -600 Descending Chicago Center
06:31AM 41.9886 -86.4422 80° East 239 275 5,800 -720 Descending Chicago Center
06:32AM 41.9947 -86.3631 84° East 218 251 4,900 -420 Descending Chicago Center
06:33AM 42.0025 -86.2867 82° East 209 241 5,000  Climbing Chicago Center
06:34AM 42.0106 -86.2081 82° East 211 243 5,000  Level Chicago Center
06:35AM 42.0186 -86.1292 82° East 213 245 5,000 -60 Level Chicago Center
06:36AM 42.0264 -86.0517 82° East 209 241 4,900  Descending Chicago Center
06:37AM 42.0328 -85.9739 84° East 210 242 5,000  Climbing Chicago Center
06:38AM 42.0403 -85.8969 82° East 209 241 5,000  Level Chicago Center
06:39AM 42.0478 -85.8192 83° East 208 239 5,000  Level Chicago Center
06:40AM 42.0547 -85.7425 83° East 208 239 5,000  Level Chicago Center
06:41AM 42.0622 -85.6667 82° East 206 237 5,000  Level Chicago Center
06:42AM 42.0697 -85.5908 82° East 205 236 5,000 -60 Level Chicago Center
06:43AM 42.0764 -85.5167 83° East 202 232 4,900  Descending Chicago Center
06:44AM 42.0831 -85.4406 83° East 203 234 5,000  Climbing Chicago Center
06:45AM 42.0897 -85.3653 83° East 203 234 5,000  Level Chicago Center
06:46AM 42.0967 -85.2892 83° East 203 234 5,000  Level Chicago Center
06:47AM 42.1033 -85.2122 83° East 206 237 5,000 -60 Level Chicago Center
06:48AM 42.1100 -85.1347 83° East 207 238 4,900  Descending Chicago Center
06:49AM 42.1172 -85.0581 83° East 207 238 5,000  Climbing Chicago Center
06:50AM 42.1236 -84.9817 84° East 205 236 4,900  Descending Chicago Center
06:51AM 42.1303 -84.9064 83° East 204 235 5,000  Climbing Chicago Center
06:52AM 42.1364 -84.8325 84° East 200 230 5,000 -60 Level Chicago Center
06:53AM 42.1428 -84.7586 83° East 199 229 4,900 -60 Descending Chicago Center
06:54AM 42.1489 -84.6836 84° East 201 231 4,900  Level Chicago Center
06:55AM 42.1556 -84.6103 83° East 198 228 4,900  Level Chicago Center
06:56AM 42.1628 -84.5208 84° East 199 229 4,900  Level Chicago Center
06:57AM 42.1675 -84.4578 84° East 200 230 4,900 60 Level Chicago Center
06:58AM 42.1694 -84.4019 87° East 199 229 5,000 60 Climbing Cleveland Center
06:58AM 42.1722 -84.3825 79° East 200 230 5,000  Level Cleveland Center
06:59AM 42.1789 -84.3072 83° East 201 231 5,000  Level Cleveland Center
07:00AM 42.1878 -84.2236 82° East 203 234 5,000  Level Cleveland Center
07:01AM 42.2108 -84.1522 66° East 203 234 5,000  Level Cleveland Center
07:02AM 42.2322 -84.0719 70° East 201 231 5,000  Level Cleveland Center
07:03AM 42.2508 -84.0028 70° East 202 232 5,000  Level Cleveland Center
07:04AM 42.2697 -83.9308 70° East 200 230 5,000  Level Cleveland Center
07:05AM 42.2950 -83.8481 68° East 198 228 5,000  Level Cleveland Center
07:06AM 42.3089 -83.7953 70° East 194 223 5,000 -840 Level Cleveland Center
07:07AM 42.3342 -83.7153 67° East 228 262 3,400 -1,140 Descending Cleveland Center
07:08AM 42.3611 -83.6378 65° Northeast 212 244 2,600 -540 Descending Cleveland Center
07:09AM 42.3544 -83.5842 100° East 148 170 2,400 -120 Descending Cleveland Center
07:10AM 42.3219 -83.5517 144° Southeast 142 163 2,400 -240 Level Cleveland Center
07:11AM 42.2933 -83.5194 140° Southeast 135 155 2,000 -480 Descending Cleveland Center
07:12AM 42.2647 -83.5069 162° South 96 110 1,500 -540 Descending Cleveland Center